• Join FlightAware (Why Join?)
  • Login
  • US Flag 
10:21AM EDT


 

Airport Tracker/Info


-or-


 

Live Flight TrackerFlight Track Log ✈ UPS1055 ✈ 13-May-2014 ✈ KMHT - KPHL

Flight Track Log - Related Links

Times and Time Zones

All times are in EDT time to prevent confusion due to time zone crossing. See the UPS1055 flight status page for this flight to view local times or setup timezone preferences in your user account.

Time Position Orientation Groundspeed Altitude Reporting Facility
EDT Latitude Longitude Course Direction KTS MPH feet Rate Location/Type
10:51PM 42.9197 -71.4260 155° Southeast 142 163 1,100  Level FlightAware ADS-B (KASH)
10:51PM 42.9099 -71.4241 187° South 148 170 2,100 2,460 Climbing FlightAware ADS-B (KASH)
10:51PM 42.9004 -71.4293 215° Southwest 159 183 2,300 360 Climbing FlightAware ADS-B (KASH)
10:51PM 42.8933 -71.4409 243° Southwest 174 200 2,300 780 Level FlightAware ADS-B (KASH)
10:52PM 42.8917 -71.4578 276° West 192 221 2,700 2,100 Climbing FlightAware ADS-B (KASH)
10:52PM 42.8973 -71.4765 298° West 205 236 3,400 3,060 Climbing FlightAware ADS-B (KASH)
10:52PM 42.9147 -71.5097 303° West 216 249 5,000 3,000 Climbing FlightAware ADS-B (KASH)
10:53PM 42.9209 -71.5275 287° West 228 262 5,600 2,100 Climbing FlightAware ADS-B (KASH)
10:53PM 42.9232 -71.5524 271° West 254 292 6,100 2,280 Climbing FlightAware ADS-B (KASH)
10:53PM 42.9241 -71.5774 271° West 263 303 6,800 3,060 Climbing FlightAware ADS-B (KASH)
10:53PM 42.9254 -71.6110 273° West 267 307 7,900 3,120 Climbing FlightAware ADS-B (KBOS)
10:54PM 42.9273 -71.6517 274° West 279 321 9,100 2,520 Climbing FlightAware ADS-B (KASH)
10:54PM 42.9288 -71.6805 274° West 280 322 9,600 1,920 Climbing FlightAware ADS-B (KASH)
10:55PM 42.9329 -71.7607 274° West 319 367 11,000 1,980 Climbing FlightAware ADS-B (KASH)
10:55PM 42.9360 -71.8277 274° West 349 402 12,100 2,880 Climbing FlightAware ADS-B (KASH)
10:56PM 42.9402 -71.9230 273° West 359 413 14,600 3,240 Climbing FlightAware ADS-B (KASH)
10:57PM 42.9433 -71.9950 273° West 370 426 16,200 2,940 Climbing FlightAware ADS-B (KASH)
10:57PM 42.9479 -72.1020 273° West 382 440 18,400 3,000 Climbing FlightAware ADS-B (KASH)
10:58PM 42.9509 -72.1744 273° West 385 443 20,000 2,700 Climbing FlightAware ADS-B (KASH)
10:58PM 42.9548 -72.2673 272° West 395 455 21,500 2,400 Climbing FlightAware ADS-B (KASH)
10:59PM 42.9563 -72.3451 265° West 403 464 22,800 2,220 Climbing FlightAware ADS-B (KASH)
10:59PM 42.9419 -72.4324 251° West 415 478 24,000 2,040 Climbing FlightAware ADS-B (KASH)
11:00PM 42.9178 -72.5170 250° West 426 490 25,200 2,100 Climbing FlightAware ADS-B (KASH)
11:01PM 42.8928 -72.6035 250° West 429 494 26,400 2,160 Climbing FlightAware ADS-B (KASH)
11:01PM 42.8680 -72.6889 250° West 425 489 27,700 1,140 Climbing FlightAware ADS-B (KASH)
11:02PM 42.8340 -72.8055 249° West 415 478 28,000 120 Climbing FlightAware ADS-B (KASH)
11:03PM 42.7947 -72.9408 249° West 420 483 28,000  Level Boston Center
11:04PM 42.7494 -73.0936 248° West 420 483 28,000  Level Boston Center
11:05PM 42.7053 -73.2431 248° West 425 489 28,000  Level Boston Center
11:06PM 42.6603 -73.3925 248° West 426 490 28,000  Level Boston Center
11:07PM 42.6156 -73.5431 248° West 428 493 28,000 -120 Level Boston Center
11:08PM 42.5711 -73.6917 248° West 428 493 27,800 -600 Descending Boston Center
11:09PM 42.5258 -73.8400 248° West 428 493 26,900 -300 Descending Boston Center
11:16PM 42.1702 -74.7679 234° Southwest 410 472 25,800 -480 Descending FlightAware ADS-B (KWWD)
11:16PM 42.1172 -74.8639 234° Southwest 423 487 23,500 -2,100 Descending New York Center
11:17PM 42.0439 -74.9933 233° Southwest 428 493 21,900 -1,920 Descending New York Center
11:18PM 41.9867 -75.0931 232° Southwest 434 499 19,900 -1,560 Descending Boston Center
11:19PM 41.8931 -75.1906 218° Southwest 433 498 19,000 -720 Descending Boston Center
11:20PM 41.7939 -75.2694 211° Southwest 419 482 18,500 -1,380 Descending Boston Center
11:21PM 41.6975 -75.3472 211° Southwest 408 470 16,300 -2,340 Descending Boston Center
11:22PM 41.6067 -75.4222 212° Southwest 388 447 13,800 -660 Descending Boston Center
11:28PM 41.0050 -75.6875 178° South 373 429 11,700 -360 Descending FlightAware ADS-B (KWWD)
11:29PM 40.9638 -75.6801 167° South 377 434 11,700  Level FlightAware ADS-B (KWWD)
11:29PM 40.8994 -75.6511 159° South 360 414 11,700  Level FlightAware ADS-B (KWWD)
11:30PM 40.8338 -75.6184 159° South 361 415 11,700  Level FlightAware ADS-B (KWWD)
11:31PM 40.7849 -75.5945 159° South 361 415 11,700 -480 Level FlightAware ADS-B (KWWD)
11:35PM 40.4171 -75.4135 160° South 362 417 9,700 -540 Descending FlightAware ADS-B (KWWD)
11:35PM 40.3776 -75.3902 156° South 295 339 9,300 -1,140 Descending FlightAware ADS-B (KPHL)
11:36PM 40.3421 -75.3692 156° South 294 338 8,600 -1,440 Descending FlightAware ADS-B (KPHL)
11:36PM 40.3213 -75.3569 156° South 293 337 8,200 -1,320 Descending FlightAware ADS-B (KPHL)
11:37PM 40.2856 -75.3365 161° South 287 330 7,600 -1,260 Descending FlightAware ADS-B (KPHL)
11:37PM 40.2655 -75.3318 177° South 281 323 7,300 -1,200 Descending FlightAware ADS-B (KPHL)
11:37PM 40.2499 -75.3338 195° South 275 316 7,000 -1,200 Descending FlightAware ADS-B (KPHL)
11:37PM 40.2284 -75.3427 199° South 271 312 6,700 -1,020 Descending FlightAware ADS-B (KPHL)
11:38PM 40.2103 -75.3510 200° South 266 306 6,500 -1,020 Descending FlightAware ADS-B (KPHL)
11:38PM 40.1938 -75.3587 200° South 264 304 6,200 -1,320 Descending FlightAware ADS-B (KPHL)
11:38PM 40.1715 -75.3693 200° South 261 300 5,800 -780 Descending FlightAware ADS-B (KWWD)
11:38PM 40.1486 -75.3803 200° South 255 293 5,700 -180 Descending FlightAware ADS-B (KWWD)
11:39PM 40.1268 -75.3905 200° South 254 292 5,700  Level FlightAware ADS-B (KWWD)
11:39PM 40.1105 -75.3980 199° South 252 290 5,700  Level FlightAware ADS-B (KPHL)
11:39PM 40.0961 -75.4048 200° South 252 290 5,700  Level FlightAware ADS-B (KPHL)
11:40PM 40.0779 -75.4133 195° South 246 283 5,700  Level FlightAware ADS-B (KPHL)
11:40PM 40.0581 -75.4153 174° South 238 274 5,700  Level FlightAware ADS-B (KPHL)
11:40PM 40.0419 -75.4112 167° South 240 276 5,700  Level FlightAware ADS-B (KPHL)
11:40PM 40.0243 -75.4060 166° South 239 275 5,700  Level FlightAware ADS-B
11:41PM 40.0074 -75.4011 167° South 238 274 5,700  Level FlightAware ADS-B (KPHL)
11:41PM 39.9860 -75.3949 166° South 239 275 5,700  Level FlightAware ADS-B
11:41PM 39.9630 -75.3883 170° South 231 266 5,700  Level FlightAware ADS-B (KWWD)
11:41PM 39.9594 -75.3880 176° South 238 274 5,700  Level FlightAware ADS-B (KPHL)
11:42PM 39.9453 -75.3914 203° Southwest 233 268 5,700  Level FlightAware ADS-B (KPHL)
11:42PM 39.9403 -75.3948 209° Southwest 225 259 5,700  Level FlightAware ADS-B (KWWD)
11:42PM 39.9321 -75.4045 235° Southwest 229 264 5,700  Level FlightAware ADS-B (KPHL)
11:42PM 39.9272 -75.4163 249° West 224 258 5,700 -240 Level FlightAware ADS-B (KWWD)
11:42PM 39.9216 -75.4385 256° West 211 243 5,600 -720 Descending FlightAware ADS-B (KWWD)
11:43PM 39.9187 -75.4521 255° West 208 239 5,300 -840 Descending FlightAware ADS-B (KPHL)
11:43PM 39.9157 -75.4666 257° West 206 237 5,300 -600 Level FlightAware ADS-B (KWWD)
11:43PM 39.9123 -75.4828 254° West 202 232 5,100 -1,080 Descending FlightAware ADS-B
11:43PM 39.9084 -75.4997 256° West 195 224 4,800 -1,260 Descending FlightAware ADS-B (KWWD)
11:43PM 39.9046 -75.5163 253° West 197 227 4,500 -1,200 Descending FlightAware ADS-B
11:44PM 39.9008 -75.5338 255° West 194 223 4,200 -1,200 Descending FlightAware ADS-B (KWWD)
11:44PM 39.8968 -75.5444 237° Southwest 189 217 4,000 -960 Descending FlightAware ADS-B (KWWD)
11:44PM 39.8953 -75.5467 225° Southwest 192 221 4,000 -600 Level FlightAware ADS-B
11:44PM 39.8899 -75.5519 212° Southwest 192 221 3,900 -840 Descending FlightAware ADS-B (KWWD)
11:44PM 39.8835 -75.5545 190° South 192 221 3,800 -1,140 Descending FlightAware ADS-B (KPHL)
11:44PM 39.8812 -75.5548 185° South 193 222 3,700 -720 Descending FlightAware ADS-B (KWWD)
11:44PM 39.8764 -75.5549 178° South 193 222 3,700  Level FlightAware ADS-B
11:44PM 39.8654 -75.5541 176° South 198 228 3,700  Level FlightAware ADS-B
11:45PM 39.8463 -75.5521 175° South 197 227 3,700 -240 Level FlightAware ADS-B
11:45PM 39.8366 -75.5497 162° South 191 220 3,600 -900 Descending FlightAware ADS-B (KWWD)
11:45PM 39.8443 -75.5518 149° Southeast 199 229 3,400 -1,200 Descending FlightAware ADS-B (KPHL)
11:45PM 39.8239 -75.5333 113° Southeast 200 230 3,200 -1,200 Descending FlightAware ADS-B (KWWD)
11:45PM 39.8219 -75.5219 99° East 200 230 3,000 -1,140 Descending FlightAware ADS-B (KWWD)
11:46PM 39.8198 -75.4967 95° East 195 224 2,600 -1,200 Descending FlightAware ADS-B
11:46PM 39.8192 -75.4877 94° East 191 220 2,400 -900 Descending FlightAware ADS-B
11:46PM 39.8220 -75.4657 75° East 175 201 2,200 -1,080 Descending FlightAware ADS-B (KWWD)
11:46PM 39.8248 -75.4542 74° East 170 196 2,000 -720 Descending FlightAware ADS-B (KOQN)
11:47PM 39.8261 -75.4484 75° East 168 193 2,000 -240 Level FlightAware ADS-B
11:47PM 39.8285 -75.4361 79° East 161 185 1,900 -600 Descending FlightAware ADS-B (KWWD)
11:47PM 39.8301 -75.4281 78° East 157 181 1,800 -660 Descending FlightAware ADS-B (KWWD)
11:47PM 39.8321 -75.4187 78° East 154 177 1,700 -300 Descending FlightAware ADS-B (KWWD)
11:47PM 39.8339 -75.4099 78° East 150 173 1,700 -240 Level FlightAware ADS-B (KWWD)
11:48PM 39.8370 -75.3942 78° East 153 176 1,600 -480 Descending FlightAware ADS-B (KWWD)
11:48PM 39.8388 -75.3852 75° East 149 171 1,400 -840 Descending FlightAware ADS-B
11:48PM 39.8456 -75.3513 75° East 112 129 1,000 -720 Descending FlightAware ADS-B (KOQN)
11:49PM 39.8481 -75.3388 75° East 111 128 800 -600 Descending FlightAware ADS-B (KPHL)
11:50PM 39.8540 -75.3096 75° East 108 124 300 -660 Descending FlightAware ADS-B (KPHL)
11:51PM 39.8619 -75.2697 75° East 110 127 -300 Descending FlightAware ADS-B (KPHL)